메인 페이지
METAR-TAF:

METAR-TAF

공항 :

브루나이 국제공항

브루나이, 브루나이

위도: 04-56N, 경도: 114-56E, 고도: 22m

현재 날씨관측

예보는 13분 전, 15:30시(UTC)에 발표되었습니다.
2kt
온도 28°C
습도 100%
기압 1011 hPa
시정 10km 이상
고도 1400ft 상공 구름 조금
고도 14000ft 상공 구름 많음

METAR: WBSB 301530Z 08002KT 9999 FEW014 BKN140 28/28 Q1011 NOSIG

시각: 23:43 (15:43 UTC)

예보

예보는 4 시간 43분 전, 11:00시(UTC)에 발표되었습니다.
예보 대상 시간: 30일 12시부터 31일 18시까지 (UTC)
동남동3kt
시정 10km 이상
고도 1400ft 상공 구름 보통
고도 1500ft 상공 구름 조금, 적란운.
일시적
30일 14시부터 30일 18시까지 (UTC)
시정: 4000m
뇌우, 비
일시적
30일 18시부터 30일 22시까지 (UTC)
시정: 8000m
약한비
전환 중
31일 02시부터 31일 04시까지 (UTC)
9kt
고도 1500ft 상공 구름 조금
고도 1600ft 상공 구름 조금, 적란운.

TAF: WBSB 301100Z 3012/3118 11003KT 9999 SCT014 FEW015CB TEMPO 3014/3018 4000 TSRA TEMPO 3018/3022 8000 -RA BECMG 3102/3104 35009KT FEW015 FEW016CB

4,000개 이상의 공항 관측 자료 및 예보 (METAR 및 TAF 보고).

지도상에서 검색 가능한 기상관측소가 노란 점과 빨간 점으로 표시되어 있습니다.

기상관측소 명을 보려면 표시 위로 마우스를 이동하세요.

날씨 관측과 예보를 보려면 클릭하세요.

지도 변경 : 확대하려면 엑스 표시가 있는 녹색 버튼, 축소하려면 빼기 표시가 있는 녹색 버튼, 다음 페이지의 지도를 보려면 녹색 화살표를 클릭하세요.


METAR-TAF: